Time,TemperatureF,DewpointF,PressureIn,WindDirection,WindDirectionDegrees,WindSpeedMPH,WindSpeedGustMPH,Humidity,HourlyPrecipIn,Conditions,Clouds,dailyrainin,SoftwareType,DateUTC
2013-03-09 00:00:00,30.7,24.0,30.26,NNW,340,0.0,0.0,76,0.00,,,0.02,Wunderground v.1.15,2013-03-09 05:00:00,
2013-03-09 00:10:00,30.7,24.0,30.26,NNW,340,0.0,0.0,76,0.00,,,0.00,Wunderground v.1.15,2013-03-09 05:10:00,
2013-03-09 00:20:00,30.5,23.8,30.25,NNW,340,0.0,0.0,76,0.00,,,0.00,Wunderground v.1.15,2013-03-09 05:20:00,
2013-03-09 00:30:00,30.4,23.7,30.25,NNW,340,0.0,0.0,76,0.00,,,0.00,Wunderground v.1.15,2013-03-09 05:30:00,
2013-03-09 00:40:00,30.3,23.6,30.25,NNW,340,0.0,0.0,76,0.00,,,0.00,Wunderground v.1.15,2013-03-09 05:40:00,
2013-03-09 00:50:00,30.3,24.0,30.25,NNW,340,0.0,0.0,77,0.00,,,0.00,Wunderground v.1.15,2013-03-09 05:50:00,
2013-03-09 01:00:00,30.2,23.9,30.25,NNW,340,0.0,0.0,77,0.00,,,0.00,Wunderground v.1.15,2013-03-09 06:00:00,
2013-03-09 01:10:00,30.5,24.1,30.25,NNW,340,0.0,0.0,77,0.00,,,0.00,Wunderground v.1.15,2013-03-09 06:10:00,
2013-03-09 01:20:00,30.8,24.4,30.24,North,5,0.0,0.0,77,0.00,,,0.00,Wunderground v.1.15,2013-03-09 06:20:00,
2013-03-09 01:30:00,30.9,24.2,30.24,North,5,0.0,0.0,76,0.00,,,0.00,Wunderground v.1.15,2013-03-09 06:30:00,
2013-03-09 01:40:00,30.9,24.2,30.23,North,5,0.0,0.0,76,0.00,,,0.00,Wunderground v.1.15,2013-03-09 06:40:00,
2013-03-09 01:50:00,30.8,24.1,30.24,North,360,0.0,0.0,76,0.00,,,0.00,Wunderground v.1.15,2013-03-09 06:50:00,
2013-03-09 02:00:00,30.8,24.1,30.23,North,360,0.0,0.0,76,0.00,,,0.00,Wunderground v.1.15,2013-03-09 07:00:00,
2013-03-09 02:10:00,30.8,24.1,30.22,North,5,0.0,0.0,76,0.00,,,0.00,Wunderground v.1.15,2013-03-09 07:10:00,
2013-03-09 02:20:00,30.7,24.0,30.22,North,360,0.0,0.0,76,0.00,,,0.00,Wunderground v.1.15,2013-03-09 07:20:00,
2013-03-09 02:30:00,30.5,23.8,30.21,North,360,0.0,0.0,76,0.00,,,0.00,Wunderground v.1.15,2013-03-09 07:30:00,
2013-03-09 02:40:00,30.0,23.4,30.21,North,5,0.0,0.0,76,0.00,,,0.00,Wunderground v.1.15,2013-03-09 07:40:00,
2013-03-09 02:50:00,29.6,23.3,30.21,North,5,0.0,0.0,77,0.00,,,0.00,Wunderground v.1.15,2013-03-09 07:50:00,
2013-03-09 03:00:00,29.4,23.4,30.21,North,360,0.0,0.0,78,0.00,,,0.00,Wunderground v.1.15,2013-03-09 08:00:00,
2013-03-09 03:10:00,29.6,23.6,30.22,North,5,0.0,0.0,78,0.00,,,0.00,Wunderground v.1.15,2013-03-09 08:10:00,
2013-03-09 03:20:00,29.8,23.8,30.21,North,5,0.0,0.0,78,0.00,,,0.00,Wunderground v.1.15,2013-03-09 08:20:00,
2013-03-09 03:30:00,29.7,23.4,30.21,North,360,0.0,0.0,77,0.00,,,0.00,Wunderground v.1.15,2013-03-09 08:30:00,
2013-03-09 03:40:00,29.6,23.6,30.21,North,360,0.0,0.0,78,0.00,,,0.00,Wunderground v.1.15,2013-03-09 08:40:00,
2013-03-09 03:50:00,29.4,23.4,30.22,North,5,0.0,0.0,78,0.00,,,0.00,Wunderground v.1.15,2013-03-09 08:50:00,
2013-03-09 04:00:00,29.4,23.4,30.22,North,360,0.0,1.0,78,0.00,,,0.00,Wunderground v.1.15,2013-03-09 09:00:00,
2013-03-09 04:10:00,29.4,23.7,30.22,North,360,0.0,0.0,79,0.00,,,0.00,Wunderground v.1.15,2013-03-09 09:10:00,
2013-03-09 04:20:00,29.5,23.8,30.22,North,5,0.0,0.0,79,0.00,,,0.00,Wunderground v.1.15,2013-03-09 09:20:00,
2013-03-09 04:30:00,29.5,23.5,30.22,North,360,0.0,0.0,78,0.00,,,0.00,Wunderground v.1.15,2013-03-09 09:30:00,
2013-03-09 04:40:00,29.3,23.6,30.22,North,5,0.0,0.0,79,0.00,,,0.00,Wunderground v.1.15,2013-03-09 09:40:00,
2013-03-09 04:50:00,28.9,23.2,30.22,North,5,0.0,0.0,79,0.00,,,0.00,Wunderground v.1.15,2013-03-09 09:50:00,
2013-03-09 05:00:00,28.7,23.0,30.22,North,5,0.0,0.0,79,0.00,,,0.00,Wunderground v.1.15,2013-03-09 10:00:00,
2013-03-09 05:10:00,28.5,23.1,30.22,North,360,0.0,0.0,80,0.00,,,0.00,Wunderground v.1.15,2013-03-09 10:10:00,
2013-03-09 05:20:00,28.6,23.5,30.22,North,5,0.0,1.0,81,0.00,,,0.00,Wunderground v.1.15,2013-03-09 10:20:00,
2013-03-09 05:30:00,28.9,23.8,30.22,North,5,0.0,0.0,81,0.00,,,0.00,Wunderground v.1.15,2013-03-09 10:30:00,
2013-03-09 05:40:00,29.1,24.0,30.22,North,5,0.0,0.0,81,0.00,,,0.00,Wunderground v.1.15,2013-03-09 10:40:00,
2013-03-09 05:50:00,29.2,23.8,30.23,North,5,0.0,0.0,80,0.00,,,0.00,Wunderground v.1.15,2013-03-09 10:50:00,
2013-03-09 06:00:00,29.1,23.7,30.23,North,5,0.0,0.0,80,0.00,,,0.00,Wunderground v.1.15,2013-03-09 11:00:00,
2013-03-09 06:10:00,29.0,23.6,30.23,North,5,0.0,0.0,80,0.00,,,0.00,Wunderground v.1.15,2013-03-09 11:10:00,
2013-03-09 06:20:00,28.8,23.4,30.23,North,5,0.0,0.0,80,0.00,,,0.00,Wunderground v.1.15,2013-03-09 11:20:00,
2013-03-09 06:30:00,28.2,22.8,30.23,North,5,0.0,0.0,80,0.00,,,0.00,Wunderground v.1.15,2013-03-09 11:30:00,
2013-03-09 06:40:00,27.9,22.8,30.24,North,360,0.0,0.0,81,0.00,,,0.00,Wunderground v.1.15,2013-03-09 11:40:00,
2013-03-09 06:50:00,27.8,22.7,30.24,North,5,0.0,0.0,81,0.00,,,0.00,Wunderground v.1.15,2013-03-09 11:50:00,
2013-03-09 07:00:00,27.8,23.0,30.24,North,360,0.0,0.0,82,0.00,,,0.00,Wunderground v.1.15,2013-03-09 12:00:00,
2013-03-09 07:10:00,27.9,23.1,30.25,North,5,0.0,0.0,82,0.00,,,0.00,Wunderground v.1.15,2013-03-09 12:10:00,
2013-03-09 07:20:00,27.9,23.1,30.25,North,360,0.0,0.0,82,0.00,,,0.00,Wunderground v.1.15,2013-03-09 12:20:00,
2013-03-09 07:30:00,28.1,23.3,30.26,North,360,0.0,0.0,82,0.00,,,0.00,Wunderground v.1.15,2013-03-09 12:30:00,
2013-03-09 07:40:00,28.3,23.8,30.26,North,360,0.0,0.0,83,0.00,,,0.00,Wunderground v.1.15,2013-03-09 12:40:00,
2013-03-09 07:50:00,29.7,25.2,30.26,North,360,0.0,0.0,83,0.00,,,0.00,Wunderground v.1.15,2013-03-09 12:50:00,
2013-03-09 08:00:00,30.3,25.8,30.26,North,360,0.0,0.0,83,0.00,,,0.00,Wunderground v.1.15,2013-03-09 13:00:00,
2013-03-09 08:10:00,30.8,26.5,30.26,North,360,0.0,0.0,84,0.00,,,0.00,Wunderground v.1.15,2013-03-09 13:10:00,
2013-03-09 08:20:00,32.1,27.8,30.26,North,5,0.0,0.0,84,0.00,,,0.00,Wunderground v.1.15,2013-03-09 13:20:00,
2013-03-09 08:30:00,33.2,28.0,30.27,North,5,0.0,0.0,81,0.00,,,0.00,Wunderground v.1.15,2013-03-09 13:30:00,
2013-03-09 08:40:00,33.5,27.7,30.27,North,5,0.0,0.0,79,0.00,,,0.00,Wunderground v.1.15,2013-03-09 13:40:00,
2013-03-09 08:50:00,34.4,28.2,30.27,North,5,0.0,0.0,78,0.00,,,0.00,Wunderground v.1.15,2013-03-09 13:50:00,
2013-03-09 09:00:00,35.4,28.9,30.27,SSW,209,1.0,1.0,77,0.00,,,0.00,Wunderground v.1.15,2013-03-09 14:00:00,
2013-03-09 09:10:00,36.5,29.3,30.28,SSW,212,1.0,1.0,75,0.00,,,0.00,Wunderground v.1.15,2013-03-09 14:10:00,
2013-03-09 09:20:00,37.7,29.8,30.27,SSW,212,1.0,2.0,73,0.00,,,0.00,Wunderground v.1.15,2013-03-09 14:20:00,
2013-03-09 09:30:00,38.8,29.8,30.27,West,278,1.0,1.0,70,0.00,,,0.00,Wunderground v.1.15,2013-03-09 14:30:00,
2013-03-09 09:40:00,39.8,30.1,30.27,South,187,1.0,2.0,68,0.00,,,0.00,Wunderground v.1.15,2013-03-09 14:40:00,
2013-03-09 09:50:00,40.6,30.1,30.27,South,188,1.0,1.0,66,0.00,,,0.00,Wunderground v.1.15,2013-03-09 14:50:00,
2013-03-09 10:00:00,41.8,30.9,30.27,SSE,155,1.0,2.0,65,0.00,,,0.00,Wunderground v.1.15,2013-03-09 15:00:00,
2013-03-09 10:10:00,42.7,31.0,30.27,South,184,1.0,3.0,63,0.00,,,0.00,Wunderground v.1.15,2013-03-09 15:10:00,
2013-03-09 10:20:00,43.5,31.3,30.27,South,186,2.0,2.0,62,0.00,,,0.00,Wunderground v.1.15,2013-03-09 15:20:00,
2013-03-09 10:30:00,44.9,31.0,30.27,SSW,210,2.0,2.0,58,0.00,,,0.00,Wunderground v.1.15,2013-03-09 15:30:00,
2013-03-09 10:40:00,46.0,32.0,30.26,SSW,210,1.0,1.0,58,0.00,,,0.00,Wunderground v.1.15,2013-03-09 15:40:00,
2013-03-09 10:50:00,46.8,31.9,30.26,SSW,213,1.0,1.0,56,0.00,,,0.00,Wunderground v.1.15,2013-03-09 15:50:00,
2013-03-09 11:00:00,48.0,31.7,30.26,SSW,211,1.0,1.0,53,0.00,,,0.00,Wunderground v.1.15,2013-03-09 16:00:00,
2013-03-09 11:10:00,48.9,32.0,30.26,SSE,151,1.0,2.0,52,0.00,,,0.00,Wunderground v.1.15,2013-03-09 16:10:00,
2013-03-09 11:20:00,49.3,31.9,30.26,ESE,110,2.0,2.0,51,0.00,,,0.00,Wunderground v.1.15,2013-03-09 16:20:00,
2013-03-09 11:30:00,49.2,32.3,30.26,SSE,150,2.0,2.0,52,0.00,,,0.00,Wunderground v.1.15,2013-03-09 16:30:00,
2013-03-09 11:40:00,49.5,33.1,30.26,SSE,153,2.0,2.0,53,0.00,,,0.00,Wunderground v.1.15,2013-03-09 16:40:00,
2013-03-09 11:50:00,50.5,34.5,30.25,WSW,244,2.0,2.0,54,0.00,,,0.00,Wunderground v.1.15,2013-03-09 16:50:00,
2013-03-09 12:00:00,50.7,33.2,30.25,SSW,196,2.0,6.0,51,0.00,,,0.00,Wunderground v.1.15,2013-03-09 17:00:00,
2013-03-09 12:10:00,51.0,33.5,30.25,ESE,123,3.0,3.0,51,0.00,,,0.00,Wunderground v.1.15,2013-03-09 17:10:00,
2013-03-09 12:20:00,52.7,33.5,30.24,NW,306,1.0,1.0,48,0.00,,,0.00,Wunderground v.1.15,2013-03-09 17:20:00,
2013-03-09 12:30:00,52.7,32.5,30.24,East,86,3.0,3.0,46,0.00,,,0.00,Wunderground v.1.15,2013-03-09 17:30:00,
2013-03-09 12:40:00,53.8,34.0,30.23,SE,130,2.0,2.0,47,0.00,,,0.00,Wunderground v.1.15,2013-03-09 17:40:00,
2013-03-09 12:50:00,52.9,33.2,30.23,SE,134,2.0,2.0,47,0.00,,,0.00,Wunderground v.1.15,2013-03-09 17:50:00,
2013-03-09 13:00:00,53.5,34.3,30.22,NW,304,2.0,2.0,48,0.00,,,0.00,Wunderground v.1.15,2013-03-09 18:00:00,
2013-03-09 13:10:00,54.4,33.5,30.22,SSW,200,3.0,3.0,45,0.00,,,0.00,Wunderground v.1.15,2013-03-09 18:10:00,
2013-03-09 13:20:00,54.9,33.9,30.21,SSE,167,2.0,2.0,45,0.00,,,0.00,Wunderground v.1.15,2013-03-09 18:20:00,
2013-03-09 13:30:00,55.9,34.3,30.21,South,175,2.0,4.0,44,0.00,,,0.00,Wunderground v.1.15,2013-03-09 18:30:00,
2013-03-09 13:40:00,55.7,32.9,30.20,SSE,160,3.0,3.0,42,0.00,,,0.00,Wunderground v.1.15,2013-03-09 18:40:00,
2013-03-09 13:50:00,55.3,33.2,30.20,SSW,204,3.0,3.0,43,0.00,,,0.00,Wunderground v.1.15,2013-03-09 18:50:00,
2013-03-09 14:00:00,56.2,33.4,30.19,South,171,3.0,3.0,42,0.00,,,0.00,Wunderground v.1.15,2013-03-09 19:00:00,
2013-03-09 14:10:00,56.7,33.2,30.19,SSW,200,3.0,3.0,41,0.00,,,0.00,Wunderground v.1.15,2013-03-09 19:10:00,
2013-03-09 14:20:00,57.1,34.2,30.19,South,180,2.0,3.0,42,0.00,,,0.00,Wunderground v.1.15,2013-03-09 19:20:00,
2013-03-09 14:30:00,57.3,33.2,30.18,South,178,2.0,2.0,40,0.00,,,0.00,Wunderground v.1.15,2013-03-09 19:30:00,
2013-03-09 14:40:00,57.6,33.4,30.18,SE,126,2.0,2.0,40,0.00,,,0.00,Wunderground v.1.15,2013-03-09 19:40:00,
2013-03-09 14:50:00,59.0,34.1,30.18,South,186,1.0,1.0,39,0.00,,,0.00,Wunderground v.1.15,2013-03-09 19:50:00,
2013-03-09 15:00:00,58.2,32.0,30.18,SE,142,2.0,2.0,37,0.00,,,0.00,Wunderground v.1.15,2013-03-09 20:00:00,
2013-03-09 15:10:00,57.9,31.8,30.18,South,183,3.0,3.0,37,0.00,,,0.00,Wunderground v.1.15,2013-03-09 20:10:00,
2013-03-09 15:20:00,59.0,32.7,30.17,SSE,165,1.0,1.0,37,0.00,,,0.00,Wunderground v.1.15,2013-03-09 20:20:00,
2013-03-09 15:30:00,59.0,32.1,30.17,West,265,2.0,2.0,36,0.00,,,0.00,Wunderground v.1.15,2013-03-09 20:30:00,
2013-03-09 15:40:00,59.0,32.1,30.17,SW,229,2.0,2.0,36,0.00,,,0.00,Wunderground v.1.15,2013-03-09 20:40:00,
2013-03-09 15:50:00,59.0,32.1,30.17,SSE,155,2.0,2.0,36,0.00,,,0.00,Wunderground v.1.15,2013-03-09 20:50:00,
2013-03-09 16:00:00,58.8,31.2,30.17,ESE,107,1.0,1.0,35,0.00,,,0.00,Wunderground v.1.15,2013-03-09 21:00:00,
2013-03-09 16:10:00,59.0,30.6,30.17,South,173,1.0,2.0,34,0.00,,,0.00,Wunderground v.1.15,2013-03-09 21:10:00,
2013-03-09 16:20:00,59.0,31.4,30.16,SSE,165,2.0,2.0,35,0.00,,,0.00,Wunderground v.1.15,2013-03-09 21:20:00,
2013-03-09 16:30:00,59.0,29.9,30.16,WNW,282,1.0,1.0,33,0.00,,,0.00,Wunderground v.1.15,2013-03-09 21:30:00,
2013-03-09 16:40:00,59.6,31.2,30.16,SSW,195,0.0,2.0,34,0.00,,,0.00,Wunderground v.1.15,2013-03-09 21:40:00,
2013-03-09 16:50:00,59.9,31.4,30.16,SSE,165,1.0,1.0,34,0.00,,,0.00,Wunderground v.1.15,2013-03-09 21:50:00,
2013-03-09 17:00:00,59.7,31.3,30.16,South,175,0.0,1.0,34,0.00,,,0.00,Wunderground v.1.15,2013-03-09 22:00:00,
2013-03-09 17:10:00,59.4,31.0,30.15,SSE,168,0.0,0.0,34,0.00,,,0.00,Wunderground v.1.15,2013-03-09 22:10:00,
2013-03-09 17:20:00,59.0,30.6,30.15,SSE,168,0.0,0.0,34,0.00,,,0.00,Wunderground v.1.15,2013-03-09 22:20:00,
2013-03-09 17:30:00,59.0,31.4,30.16,SSE,168,0.0,0.0,35,0.00,,,0.00,Wunderground v.1.15,2013-03-09 22:30:00,
2013-03-09 17:40:00,58.1,32.6,30.16,South,186,1.0,1.0,38,0.00,,,0.00,Wunderground v.1.15,2013-03-09 22:40:00,
2013-03-09 17:50:00,57.4,32.6,30.16,South,185,0.0,0.0,39,0.00,,,0.00,Wunderground v.1.15,2013-03-09 22:50:00,
2013-03-09 18:00:00,56.7,32.6,30.16,South,185,0.0,0.0,40,0.00,,,0.00,Wunderground v.1.15,2013-03-09 23:00:00,
2013-03-09 18:10:00,56.0,33.2,30.16,South,185,0.0,0.0,42,0.00,,,0.00,Wunderground v.1.15,2013-03-09 23:10:00,
2013-03-09 18:20:00,55.1,33.0,30.16,South,185,0.0,0.0,43,0.00,,,0.00,Wunderground v.1.15,2013-03-09 23:20:00,
2013-03-09 18:30:00,54.2,32.7,30.17,South,185,0.0,0.0,44,0.00,,,0.00,Wunderground v.1.15,2013-03-09 23:30:00,
2013-03-09 18:40:00,53.3,32.5,30.17,South,185,0.0,0.0,45,0.00,,,0.00,Wunderground v.1.15,2013-03-09 23:40:00,
2013-03-09 18:50:00,52.2,32.0,30.16,South,184,0.0,0.0,46,0.00,,,0.00,Wunderground v.1.15,2013-03-09 23:50:00,
2013-03-09 19:00:00,51.1,32.1,30.16,South,185,0.0,0.0,48,0.00,,,0.00,Wunderground v.1.15,2013-03-10 00:00:00,
2013-03-09 19:10:00,50.1,31.7,30.17,South,185,0.0,0.0,49,0.00,,,0.00,Wunderground v.1.15,2013-03-10 00:10:00,
2013-03-09 19:20:00,49.4,31.5,30.17,South,185,0.0,0.0,50,0.00,,,0.00,Wunderground v.1.15,2013-03-10 00:20:00,
2013-03-09 19:30:00,48.8,31.0,30.17,South,184,0.0,0.0,50,0.00,,,0.00,Wunderground v.1.15,2013-03-10 00:30:00,
2013-03-09 19:40:00,48.3,31.0,30.18,South,185,0.0,0.0,51,0.00,,,0.00,Wunderground v.1.15,2013-03-10 00:40:00,
2013-03-09 19:50:00,47.7,30.9,30.18,South,185,0.0,0.0,52,0.00,,,0.00,Wunderground v.1.15,2013-03-10 00:50:00,
2013-03-09 20:00:00,47.3,30.5,30.17,South,185,0.0,0.0,52,0.00,,,0.00,Wunderground v.1.15,2013-03-10 01:00:00,
2013-03-09 20:10:00,46.7,30.5,30.17,South,185,0.0,0.0,53,0.00,,,0.00,Wunderground v.1.15,2013-03-10 01:10:00,
2013-03-09 20:20:00,46.1,30.4,30.17,South,185,0.0,0.0,54,0.00,,,0.00,Wunderground v.1.15,2013-03-10 01:20:00,
2013-03-09 20:30:00,45.9,30.2,30.18,South,184,0.0,0.0,54,0.00,,,0.00,Wunderground v.1.15,2013-03-10 01:30:00,
2013-03-09 20:40:00,45.8,30.1,30.18,South,185,0.0,0.0,54,0.00,,,0.00,Wunderground v.1.15,2013-03-10 01:40:00,
2013-03-09 20:50:00,45.7,30.0,30.18,South,185,0.0,0.0,54,0.00,,,0.00,Wunderground v.1.15,2013-03-10 01:50:00,
2013-03-09 21:00:00,45.6,29.9,30.18,South,184,0.0,0.0,54,0.00,,,0.00,Wunderground v.1.15,2013-03-10 02:00:00,
2013-03-09 21:10:00,45.6,29.4,30.18,South,185,0.0,0.0,53,0.00,,,0.00,Wunderground v.1.15,2013-03-10 02:10:00,
2013-03-09 21:20:00,45.6,29.9,30.18,South,185,0.0,0.0,54,0.00,,,0.00,Wunderground v.1.15,2013-03-10 02:20:00,
2013-03-09 21:30:00,45.4,29.3,30.19,South,184,0.0,0.0,53,0.00,,,0.00,Wunderground v.1.15,2013-03-10 02:30:00,
2013-03-09 21:40:00,45.2,29.1,30.19,South,185,0.0,0.0,53,0.00,,,0.00,Wunderground v.1.15,2013-03-10 02:40:00,
2013-03-09 21:50:00,45.2,29.5,30.19,South,184,0.0,0.0,54,0.00,,,0.00,Wunderground v.1.15,2013-03-10 02:50:00,
2013-03-09 22:00:00,45.0,29.3,30.19,South,184,0.0,0.0,54,0.00,,,0.00,Wunderground v.1.15,2013-03-10 03:00:00,
2013-03-09 22:10:00,45.0,29.3,30.19,South,185,0.0,0.0,54,0.00,,,0.00,Wunderground v.1.15,2013-03-10 03:10:00,
2013-03-09 22:20:00,45.0,28.9,30.20,South,184,0.0,0.0,53,0.00,,,0.00,Wunderground v.1.15,2013-03-10 03:20:00,
2013-03-09 22:30:00,45.0,28.9,30.20,South,184,0.0,0.0,53,0.00,,,0.00,Wunderground v.1.15,2013-03-10 03:30:00,
2013-03-09 22:40:00,45.0,28.9,30.20,South,185,0.0,0.0,53,0.00,,,0.00,Wunderground v.1.15,2013-03-10 03:40:00,
2013-03-09 22:50:00,44.9,28.8,30.20,South,184,0.0,0.0,53,0.00,,,0.00,Wunderground v.1.15,2013-03-10 03:50:00,
2013-03-09 23:00:00,44.9,28.8,30.20,South,184,0.0,0.0,53,0.00,,,0.00,Wunderground v.1.15,2013-03-10 04:00:00,
2013-03-09 23:10:00,45.0,28.9,30.20,South,185,0.0,0.0,53,0.00,,,0.00,Wunderground v.1.15,2013-03-10 04:10:00,
2013-03-09 23:20:00,45.0,28.9,30.19,South,185,0.0,0.0,53,0.00,,,0.00,Wunderground v.1.15,2013-03-10 04:20:00,
2013-03-09 23:30:00,45.0,28.9,30.19,South,184,0.0,0.0,53,0.00,,,0.00,Wunderground v.1.15,2013-03-10 04:30:00,
2013-03-09 23:40:00,44.7,28.6,30.19,South,184,0.0,0.0,53,0.00,,,0.00,Wunderground v.1.15,2013-03-10 04:40:00,
2013-03-09 23:50:00,44.6,28.5,30.19,South,185,0.0,0.0,53,0.00,,,0.00,Wunderground v.1.15,2013-03-10 04:50:00,